Kapalua-West, HI

9:16 AM HST on August 21, 2014 (GMT -1000)
Lahaina | Change Station
CLOSE
Current Station
Airport
Location: Lahaina,
Elevation: 256 ft
Nearby Weather Stations
Active Advisory: High Surf Advisory

Elev 256 ft 20.96 °N, 156.67 °W | Updated 26 minutes ago

Light Rain Showers
Light Showers Rain
75 °F
Feels Like 75 °F
N
12
Wind Variable Wind from NE

Today
High -- | Low -- °F
--% Chance of Precip.
Yesterday
High -- | Low -- °F
Precip. -- in
6:07 AM 6:51 PM
Waning Crescent, 13% visible
Pressure 30.06 in
Visibility 5.0 miles
Clouds Scattered Clouds 1000 ft
Overcast 3000 ft
Dew Point 72 °F
Humidity 89%
Rainfall 0.00 in
Snow Depth Not available.
UV 1 out of 12
Pollen Not available.
Air Quality Not available.
Flu Activity Not available.
METAR PHJH 211850Z 05010KT 5SM -SHRA SCT010 OVC030 24/22 A3006

More Conditions Fewer Conditions

Pressure 30.06 in
Visibility 5.0 miles
Clouds Scattered Clouds 1000 ft
Overcast 3000 ft
Dew Point 72 °F
Humidity 89%
Rainfall 0.00 in
Snow Depth Not available.
UV 1 out of 12
Pollen Not available.
Air Quality Not available.
Flu Activity Not available.
METAR PHJH 211850Z 05010KT 5SM -SHRA SCT010 OVC030 24/22 A3006

More Conditions Fewer Conditions

10-Day Weather Forecast

Almanac

Astronomy

Aug. 21, 2014 Rise Set
Actual Time 6:07 AM HST 6:51 PM HST
Civil Twilight 5:44 AM HST 7:14 PM HST
Nautical Twilight 5:17 AM HST 7:41 PM HST
Astronomical Twilight 4:50 AM HST 8:08 PM HST
Moon 2:59 AM HST 4:18 PM HST
Length of Visible Light 13h 29m
Length of Day
12h 44m
Tomorrow will be 1m 5s shorter.
Waning Crescent, 13% of the Moon is Illuminated
Today
Waning Crescent
Aug 25
New
Sep 2
First Quarter
Sep 8
Full
Sep 15
Last Quarter

Today's Extremes

State Highs State Lows

Community

WunderPhotos

Upload Photos

1,746,005 photos uploaded!

WunderBlogs® & News

Nearby

Snow Depth

Station Depth Elevation
No new snow has been reported.

Earthquake Activity

City Distance Mag. Time & Date
No recent earthquake activity has been reported nearby.
Minimum magnitude displayed is 2.5.

Coastal Water Temperatures

Place Temperature
No Stations Reporting

Nearby Weather Stations